sensor_id;sensor_type;location;lat;lon;timestamp;temperature;humidity
40556;DHT22;26250;45.422;11.100;2023-05-27T09:34:40;26.60;64.50
40556;DHT22;26250;45.422;11.100;2023-05-27T09:37:12;26.60;65.50
40556;DHT22;26250;45.422;11.100;2023-05-27T09:39:42;26.60;64.10
40556;DHT22;26250;45.422;11.100;2023-05-27T09:42:09;26.60;64.20
40556;DHT22;26250;45.422;11.100;2023-05-27T09:44:36;26.60;64.60
40556;DHT22;26250;45.422;11.100;2023-05-27T09:47:10;26.80;64.30
40556;DHT22;26250;45.422;11.100;2023-05-27T09:49:37;26.80;63.10
40556;DHT22;26250;45.422;11.100;2023-05-27T09:52:05;26.80;62.90
40556;DHT22;26250;45.422;11.100;2023-05-27T09:54:34;26.80;63.80
40556;DHT22;26250;45.422;11.100;2023-05-27T09:57:04;26.90;64.40
40556;DHT22;26250;45.422;11.100;2023-05-27T09:59:32;27.00;63.70
40556;DHT22;26250;45.422;11.100;2023-05-27T10:02:01;27.10;62.90
40556;DHT22;26250;45.422;11.100;2023-05-27T10:04:30;27.20;62.40
40556;DHT22;26250;45.422;11.100;2023-05-27T10:06:59;27.10;61.90
40556;DHT22;26250;45.422;11.100;2023-05-27T10:09:28;27.10;61.80
40556;DHT22;26250;45.422;11.100;2023-05-27T10:11:55;27.10;61.50
40556;DHT22;26250;45.422;11.100;2023-05-27T10:14:22;27.10;62.20
40556;DHT22;26250;45.422;11.100;2023-05-27T10:16:52;27.10;62.40
40556;DHT22;26250;45.422;11.100;2023-05-27T10:19:22;27.00;62.80
40556;DHT22;26250;45.422;11.100;2023-05-27T10:21:49;27.00;62.80
40556;DHT22;26250;45.422;11.100;2023-05-27T10:24:18;27.10;63.40
40556;DHT22;26250;45.422;11.100;2023-05-27T10:26:46;27.20;62.40
40556;DHT22;26250;45.422;11.100;2023-05-27T10:29:15;27.20;61.00
40556;DHT22;26250;45.422;11.100;2023-05-27T10:31:47;27.20;62.60
40556;DHT22;26250;45.422;11.100;2023-05-27T10:34:19;27.20;60.90
40556;DHT22;26250;45.422;11.100;2023-05-27T10:36:47;27.10;60.50
40556;DHT22;26250;45.422;11.100;2023-05-27T10:39:24;27.20;62.20
40556;DHT22;26250;45.422;11.100;2023-05-27T10:41:55;27.20;61.20
40556;DHT22;26250;45.422;11.100;2023-05-27T10:47:04;27.30;60.10
40556;DHT22;26250;45.422;11.100;2023-05-27T10:49:36;27.30;60.00
40556;DHT22;26250;45.422;11.100;2023-05-27T10:52:17;27.20;59.80
40556;DHT22;26250;45.422;11.100;2023-05-27T10:54:47;27.10;59.90
40556;DHT22;26250;45.422;11.100;2023-05-27T10:57:17;27.20;61.20
40556;DHT22;26250;45.422;11.100;2023-05-27T10:59:54;27.30;60.40
40556;DHT22;26250;45.422;11.100;2023-05-27T11:02:29;27.40;59.30
40556;DHT22;26250;45.422;11.100;2023-05-27T11:05:00;27.40;59.30
40556;DHT22;26250;45.422;11.100;2023-05-27T11:07:27;27.40;59.60
40556;DHT22;26250;45.422;11.100;2023-05-27T11:09:54;27.50;59.20
40556;DHT22;26250;45.422;11.100;2023-05-27T11:12:23;27.50;59.20
40556;DHT22;26250;45.422;11.100;2023-05-27T11:14:53;27.50;59.70
40556;DHT22;26250;45.422;11.100;2023-05-27T11:17:22;27.50;59.00
40556;DHT22;26250;45.422;11.100;2023-05-27T11:19:49;27.50;59.20
40556;DHT22;26250;45.422;11.100;2023-05-27T11:22:19;27.50;57.90
40556;DHT22;26250;45.422;11.100;2023-05-27T11:27:23;27.50;58.10
40556;DHT22;26250;45.422;11.100;2023-05-27T11:29:51;27.50;58.30
40556;DHT22;26250;45.422;11.100;2023-05-27T11:32:20;27.60;58.80
40556;DHT22;26250;45.422;11.100;2023-05-27T11:34:47;27.60;58.30
40556;DHT22;26250;45.422;11.100;2023-05-27T11:37:15;27.60;58.60
40556;DHT22;26250;45.422;11.100;2023-05-27T11:39:52;27.60;58.90
40556;DHT22;26250;45.422;11.100;2023-05-27T11:42:23;27.60;58.20
40556;DHT22;26250;45.422;11.100;2023-05-27T11:44:54;27.60;58.90
40556;DHT22;26250;45.422;11.100;2023-05-27T11:47:22;27.60;59.80
40556;DHT22;26250;45.422;11.100;2023-05-27T11:49:50;27.60;57.90
40556;DHT22;26250;45.422;11.100;2023-05-27T11:52:17;27.60;58.40
40556;DHT22;26250;45.422;11.100;2023-05-27T11:54:48;27.60;57.90
40556;DHT22;26250;45.422;11.100;2023-05-27T11:57:24;27.70;59.30
40556;DHT22;26250;45.422;11.100;2023-05-27T11:59:51;27.80;57.30
40556;DHT22;26250;45.422;11.100;2023-05-27T12:02:18;27.80;57.30
40556;DHT22;26250;45.422;11.100;2023-05-27T12:04:48;27.80;56.60
40556;DHT22;26250;45.422;11.100;2023-05-27T12:07:15;27.80;56.80
40556;DHT22;26250;45.422;11.100;2023-05-27T12:09:47;27.70;57.00
40556;DHT22;26250;45.422;11.100;2023-05-27T12:12:20;27.70;56.50
40556;DHT22;26250;45.422;11.100;2023-05-27T12:14:47;27.70;56.60
40556;DHT22;26250;45.422;11.100;2023-05-27T12:17:17;27.80;58.70
40556;DHT22;26250;45.422;11.100;2023-05-27T12:19:45;27.80;57.40
40556;DHT22;26250;45.422;11.100;2023-05-27T12:22:12;27.90;56.80
40556;DHT22;26250;45.422;11.100;2023-05-27T12:24:39;27.80;57.20
40556;DHT22;26250;45.422;11.100;2023-05-27T12:27:06;27.80;56.50
40556;DHT22;26250;45.422;11.100;2023-05-27T12:29:33;27.90;57.50
40556;DHT22;26250;45.422;11.100;2023-05-27T12:32:01;28.00;58.10
40556;DHT22;26250;45.422;11.100;2023-05-27T12:34:28;28.10;58.30
40556;DHT22;26250;45.422;11.100;2023-05-27T12:36:55;28.10;57.10
40556;DHT22;26250;45.422;11.100;2023-05-27T12:39:22;28.10;57.90
40556;DHT22;26250;45.422;11.100;2023-05-27T12:41:49;28.10;59.10
40556;DHT22;26250;45.422;11.100;2023-05-27T12:44:16;28.10;57.50
40556;DHT22;26250;45.422;11.100;2023-05-27T12:46:45;28.10;59.70
40556;DHT22;26250;45.422;11.100;2023-05-27T12:49:12;28.10;58.30
40556;DHT22;26250;45.422;11.100;2023-05-27T12:51:39;28.10;57.50
40556;DHT22;26250;45.422;11.100;2023-05-27T12:54:06;28.10;57.70
40556;DHT22;26250;45.422;11.100;2023-05-27T12:56:33;28.00;59.60
40556;DHT22;26250;45.422;11.100;2023-05-27T12:59:00;28.00;58.00
40556;DHT22;26250;45.422;11.100;2023-05-27T13:01:27;28.00;59.00
40556;DHT22;26250;45.422;11.100;2023-05-27T13:03:56;27.80;57.60
40556;DHT22;26250;45.422;11.100;2023-05-27T13:06:22;27.90;56.90
40556;DHT22;26250;45.422;11.100;2023-05-27T13:08:49;27.90;57.00
40556;DHT22;26250;45.422;11.100;2023-05-27T13:11:16;27.90;57.90
40556;DHT22;26250;45.422;11.100;2023-05-27T13:13:44;27.80;58.30
40556;DHT22;26250;45.422;11.100;2023-05-27T13:16:10;27.90;58.00
40556;DHT22;26250;45.422;11.100;2023-05-27T13:18:37;28.00;57.90
40556;DHT22;26250;45.422;11.100;2023-05-27T13:21:04;28.10;58.10
40556;DHT22;26250;45.422;11.100;2023-05-27T13:23:33;28.10;58.00
40556;DHT22;26250;45.422;11.100;2023-05-27T13:26:01;28.20;58.20
40556;DHT22;26250;45.422;11.100;2023-05-27T13:28:28;28.20;58.00
40556;DHT22;26250;45.422;11.100;2023-05-27T13:30:55;28.30;57.70
40556;DHT22;26250;45.422;11.100;2023-05-27T13:33:23;28.30;58.30
40556;DHT22;26250;45.422;11.100;2023-05-27T13:35:50;28.20;57.50
40556;DHT22;26250;45.422;11.100;2023-05-27T13:38:17;28.20;57.80
40556;DHT22;26250;45.422;11.100;2023-05-27T13:40:44;28.30;57.40
40556;DHT22;26250;45.422;11.100;2023-05-27T13:43:11;28.20;57.50
40556;DHT22;26250;45.422;11.100;2023-05-27T13:45:38;28.10;58.30
40556;DHT22;26250;45.422;11.100;2023-05-27T13:48:05;28.10;57.80
40556;DHT22;26250;45.422;11.100;2023-05-27T13:50:32;28.20;58.10
40556;DHT22;26250;45.422;11.100;2023-05-27T13:52:59;28.30;58.00
40556;DHT22;26250;45.422;11.100;2023-05-27T13:55:26;28.40;57.70
40556;DHT22;26250;45.422;11.100;2023-05-27T13:57:53;28.40;57.40
40556;DHT22;26250;45.422;11.100;2023-05-27T14:00:20;28.40;58.40
40556;DHT22;26250;45.422;11.100;2023-05-27T14:02:48;28.30;57.50
40556;DHT22;26250;45.422;11.100;2023-05-27T14:05:15;28.20;57.40
40556;DHT22;26250;45.422;11.100;2023-05-27T14:07:43;28.10;58.20
40556;DHT22;26250;45.422;11.100;2023-05-27T14:10:10;28.10;57.80
40556;DHT22;26250;45.422;11.100;2023-05-27T14:12:38;28.20;58.00
40556;DHT22;26250;45.422;11.100;2023-05-27T14:15:06;28.30;57.80
40556;DHT22;26250;45.422;11.100;2023-05-27T14:17:33;28.40;60.40
40556;DHT22;26250;45.422;11.100;2023-05-27T14:20:03;28.50;58.30
40556;DHT22;26250;45.422;11.100;2023-05-27T14:22:30;28.60;57.00
40556;DHT22;26250;45.422;11.100;2023-05-27T14:24:57;28.50;56.90
40556;DHT22;26250;45.422;11.100;2023-05-27T14:27:25;28.50;56.80
40556;DHT22;26250;45.422;11.100;2023-05-27T14:29:52;28.50;58.00
40556;DHT22;26250;45.422;11.100;2023-05-27T14:32:19;28.60;57.10
40556;DHT22;26250;45.422;11.100;2023-05-27T14:34:46;28.60;58.70
40556;DHT22;26250;45.422;11.100;2023-05-27T14:37:14;28.70;56.90
40556;DHT22;26250;45.422;11.100;2023-05-27T14:39:41;28.60;57.00
40556;DHT22;26250;45.422;11.100;2023-05-27T14:42:07;28.60;57.40
40556;DHT22;26250;45.422;11.100;2023-05-27T14:44:35;28.60;56.90
40556;DHT22;26250;45.422;11.100;2023-05-27T14:47:05;28.60;56.60
40556;DHT22;26250;45.422;11.100;2023-05-27T14:49:32;28.60;57.50
40556;DHT22;26250;45.422;11.100;2023-05-27T14:51:59;28.60;57.40
40556;DHT22;26250;45.422;11.100;2023-05-27T14:54:26;28.60;56.30
40556;DHT22;26250;45.422;11.100;2023-05-27T14:56:53;28.60;56.80
40556;DHT22;26250;45.422;11.100;2023-05-27T14:59:21;28.50;56.80
40556;DHT22;26250;45.422;11.100;2023-05-27T15:01:48;28.50;57.10
40556;DHT22;26250;45.422;11.100;2023-05-27T15:04:15;28.60;58.60
40556;DHT22;26250;45.422;11.100;2023-05-27T15:06:44;28.60;56.80
40556;DHT22;26250;45.422;11.100;2023-05-27T15:09:11;28.60;57.00
40556;DHT22;26250;45.422;11.100;2023-05-27T15:11:38;28.60;57.00
40556;DHT22;26250;45.422;11.100;2023-05-27T15:14:08;28.50;58.50
40556;DHT22;26250;45.422;11.100;2023-05-27T15:16:36;28.50;58.40
40556;DHT22;26250;45.422;11.100;2023-05-27T15:19:03;28.50;57.90
40556;DHT22;26250;45.422;11.100;2023-05-27T15:21:29;28.40;58.70
40556;DHT22;26250;45.422;11.100;2023-05-27T15:23:58;28.40;57.90
40556;DHT22;26250;45.422;11.100;2023-05-27T15:26:25;28.40;58.10
40556;DHT22;26250;45.422;11.100;2023-05-27T15:28:52;28.40;60.00
40556;DHT22;26250;45.422;11.100;2023-05-27T15:31:19;28.40;59.70
40556;DHT22;26250;45.422;11.100;2023-05-27T15:33:47;28.30;60.40
40556;DHT22;26250;45.422;11.100;2023-05-27T15:36:14;28.30;61.50
40556;DHT22;26250;45.422;11.100;2023-05-27T15:38:41;28.30;61.50
40556;DHT22;26250;45.422;11.100;2023-05-27T15:41:08;28.20;61.70
40556;DHT22;26250;45.422;11.100;2023-05-27T15:43:35;28.20;62.50
40556;DHT22;26250;45.422;11.100;2023-05-27T15:46:01;28.30;62.80
40556;DHT22;26250;45.422;11.100;2023-05-27T15:48:31;28.30;61.80
40556;DHT22;26250;45.422;11.100;2023-05-27T15:51:00;28.20;61.20
40556;DHT22;26250;45.422;11.100;2023-05-27T15:53:27;28.20;59.30
40556;DHT22;26250;45.422;11.100;2023-05-27T15:55:54;28.10;61.00
40556;DHT22;26250;45.422;11.100;2023-05-27T15:58:21;28.10;60.60
40556;DHT22;26250;45.422;11.100;2023-05-27T16:00:48;28.10;61.90
40556;DHT22;26250;45.422;11.100;2023-05-27T16:03:15;28.10;61.60
40556;DHT22;26250;45.422;11.100;2023-05-27T16:05:43;28.20;63.80
40556;DHT22;26250;45.422;11.100;2023-05-27T16:08:10;28.20;64.60
40556;DHT22;26250;45.422;11.100;2023-05-27T16:10:53;28.10;65.90
40556;DHT22;26250;45.422;11.100;2023-05-27T16:13:20;28.00;67.00
40556;DHT22;26250;45.422;11.100;2023-05-27T16:15:48;27.80;67.60
40556;DHT22;26250;45.422;11.100;2023-05-27T16:18:15;27.70;67.50
40556;DHT22;26250;45.422;11.100;2023-05-27T16:20:47;27.60;68.40
40556;DHT22;26250;45.422;11.100;2023-05-27T16:23:16;27.60;68.10
40556;DHT22;26250;45.422;11.100;2023-05-27T16:25:42;27.60;67.90
40556;DHT22;26250;45.422;11.100;2023-05-27T16:28:09;27.60;69.00
40556;DHT22;26250;45.422;11.100;2023-05-27T16:30:36;27.60;69.20
40556;DHT22;26250;45.422;11.100;2023-05-27T16:33:03;27.60;67.70
40556;DHT22;26250;45.422;11.100;2023-05-27T16:35:33;27.50;69.00
40556;DHT22;26250;45.422;11.100;2023-05-27T16:38:00;27.50;67.80
40556;DHT22;26250;45.422;11.100;2023-05-27T16:40:27;27.50;67.90
40556;DHT22;26250;45.422;11.100;2023-05-27T16:42:54;27.40;68.40
40556;DHT22;26250;45.422;11.100;2023-05-27T16:45:21;27.40;69.00
40556;DHT22;26250;45.422;11.100;2023-05-27T16:47:48;27.40;70.00
40556;DHT22;26250;45.422;11.100;2023-05-27T16:50:15;27.40;69.70
40556;DHT22;26250;45.422;11.100;2023-05-27T16:52:42;27.50;69.30
40556;DHT22;26250;45.422;11.100;2023-05-27T16:55:09;27.50;69.20
40556;DHT22;26250;45.422;11.100;2023-05-27T16:57:36;27.40;69.30
40556;DHT22;26250;45.422;11.100;2023-05-27T17:00:04;27.40;70.10
40556;DHT22;26250;45.422;11.100;2023-05-27T17:02:31;27.30;70.70
40556;DHT22;26250;45.422;11.100;2023-05-27T17:04:58;27.40;70.10
40556;DHT22;26250;45.422;11.100;2023-05-27T17:07:25;27.40;69.40
40556;DHT22;26250;45.422;11.100;2023-05-27T17:09:52;27.30;69.70
40556;DHT22;26250;45.422;11.100;2023-05-27T17:12:19;27.20;70.20
40556;DHT22;26250;45.422;11.100;2023-05-27T17:14:46;27.10;70.60
40556;DHT22;26250;45.422;11.100;2023-05-27T17:17:16;27.00;71.30
40556;DHT22;26250;45.422;11.100;2023-05-27T17:19:44;27.00;71.70
40556;DHT22;26250;45.422;11.100;2023-05-27T17:22:12;26.90;72.50
40556;DHT22;26250;45.422;11.100;2023-05-27T17:24:40;26.90;73.20
40556;DHT22;26250;45.422;11.100;2023-05-27T17:27:08;26.90;73.00
40556;DHT22;26250;45.422;11.100;2023-05-27T17:29:39;26.80;72.00
40556;DHT22;26250;45.422;11.100;2023-05-27T17:32:06;26.80;71.80
40556;DHT22;26250;45.422;11.100;2023-05-27T17:34:33;26.90;73.80
40556;DHT22;26250;45.422;11.100;2023-05-27T17:37:00;27.00;74.00
40556;DHT22;26250;45.422;11.100;2023-05-27T17:39:27;26.90;73.60
40556;DHT22;26250;45.422;11.100;2023-05-27T17:41:57;26.90;74.40
40556;DHT22;26250;45.422;11.100;2023-05-27T17:44:23;26.80;74.50
40556;DHT22;26250;45.422;11.100;2023-05-27T17:46:50;26.70;74.00
40556;DHT22;26250;45.422;11.100;2023-05-27T17:49:17;26.60;74.00
40556;DHT22;26250;45.422;11.100;2023-05-27T17:51:44;26.60;73.80
40556;DHT22;26250;45.422;11.100;2023-05-27T17:54:11;26.60;74.70
40556;DHT22;26250;45.422;11.100;2023-05-27T17:56:38;26.40;75.00
40556;DHT22;26250;45.422;11.100;2023-05-27T17:59:05;26.40;75.60
40556;DHT22;26250;45.422;11.100;2023-05-27T18:01:32;26.40;75.00
40556;DHT22;26250;45.422;11.100;2023-05-27T18:04:00;26.30;75.40
40556;DHT22;26250;45.422;11.100;2023-05-27T18:06:27;26.20;75.60
40556;DHT22;26250;45.422;11.100;2023-05-27T18:08:53;26.30;76.10
40556;DHT22;26250;45.422;11.100;2023-05-27T18:11:21;26.20;75.80
40556;DHT22;26250;45.422;11.100;2023-05-27T18:13:48;26.10;76.50
40556;DHT22;26250;45.422;11.100;2023-05-27T18:16:15;26.10;76.30
40556;DHT22;26250;45.422;11.100;2023-05-27T18:18:42;26.00;76.90
40556;DHT22;26250;45.422;11.100;2023-05-27T18:21:09;25.90;78.40
40556;DHT22;26250;45.422;11.100;2023-05-27T18:23:36;25.60;79.80
40556;DHT22;26250;45.422;11.100;2023-05-27T18:26:03;25.70;80.10
40556;DHT22;26250;45.422;11.100;2023-05-27T18:28:30;25.50;79.80
40556;DHT22;26250;45.422;11.100;2023-05-27T18:30:57;25.50;78.70
40556;DHT22;26250;45.422;11.100;2023-05-27T18:33:24;25.50;78.50
40556;DHT22;26250;45.422;11.100;2023-05-27T18:35:51;25.40;79.40
40556;DHT22;26250;45.422;11.100;2023-05-27T18:38:20;25.30;80.90
40556;DHT22;26250;45.422;11.100;2023-05-27T18:40:47;25.30;80.40
40556;DHT22;26250;45.422;11.100;2023-05-27T18:43:18;25.40;80.40
40556;DHT22;26250;45.422;11.100;2023-05-27T18:45:50;25.30;81.30
40556;DHT22;26250;45.422;11.100;2023-05-27T18:48:18;25.30;80.10
40556;DHT22;26250;45.422;11.100;2023-05-27T18:50:45;25.10;80.30
40556;DHT22;26250;45.422;11.100;2023-05-27T18:53:13;24.80;82.10
40556;DHT22;26250;45.422;11.100;2023-05-27T18:55:40;24.80;80.20
40556;DHT22;26250;45.422;11.100;2023-05-27T18:58:08;24.60;81.10
40556;DHT22;26250;45.422;11.100;2023-05-27T19:00:35;24.80;80.70
40556;DHT22;26250;45.422;11.100;2023-05-27T19:03:04;24.90;81.00
40556;DHT22;26250;45.422;11.100;2023-05-27T19:05:31;24.70;81.80
40556;DHT22;26250;45.422;11.100;2023-05-27T19:07:58;24.40;83.20
40556;DHT22;26250;45.422;11.100;2023-05-27T19:10:25;24.50;83.00
40556;DHT22;26250;45.422;11.100;2023-05-27T19:12:52;24.50;82.70
40556;DHT22;26250;45.422;11.100;2023-05-27T19:15:20;24.50;81.90
40556;DHT22;26250;45.422;11.100;2023-05-27T19:17:47;24.60;81.30
40556;DHT22;26250;45.422;11.100;2023-05-27T19:20:14;24.70;80.00
40556;DHT22;26250;45.422;11.100;2023-05-27T19:22:41;24.80;80.40
40556;DHT22;26250;45.422;11.100;2023-05-27T19:25:08;24.90;79.70
40556;DHT22;26250;45.422;11.100;2023-05-27T19:27:35;24.90;78.40
40556;DHT22;26250;45.422;11.100;2023-05-27T19:30:06;24.80;80.70
40556;DHT22;26250;45.422;11.100;2023-05-27T19:32:33;24.90;78.40
40556;DHT22;26250;45.422;11.100;2023-05-27T19:35:00;24.80;79.70
40556;DHT22;26250;45.422;11.100;2023-05-27T19:37:27;24.80;78.90
40556;DHT22;26250;45.422;11.100;2023-05-27T19:39:54;24.70;78.90
40556;DHT22;26250;45.422;11.100;2023-05-27T19:42:22;24.70;78.80
40556;DHT22;26250;45.422;11.100;2023-05-27T19:44:49;24.40;79.00
40556;DHT22;26250;45.422;11.100;2023-05-27T19:47:16;24.30;79.50
40556;DHT22;26250;45.422;11.100;2023-05-27T19:49:45;24.20;80.20
40556;DHT22;26250;45.422;11.100;2023-05-27T19:52:13;24.20;80.30
40556;DHT22;26250;45.422;11.100;2023-05-27T19:54:40;24.10;81.20
40556;DHT22;26250;45.422;11.100;2023-05-27T19:57:08;24.20;80.70
40556;DHT22;26250;45.422;11.100;2023-05-27T19:59:35;24.20;81.30
40556;DHT22;26250;45.422;11.100;2023-05-27T20:02:02;24.40;80.00
40556;DHT22;26250;45.422;11.100;2023-05-27T20:04:29;24.30;79.20
40556;DHT22;26250;45.422;11.100;2023-05-27T20:06:56;24.20;79.20
40556;DHT22;26250;45.422;11.100;2023-05-27T20:09:23;24.20;79.10
40556;DHT22;26250;45.422;11.100;2023-05-27T20:11:53;24.10;80.10
40556;DHT22;26250;45.422;11.100;2023-05-27T20:14:21;24.20;79.00
40556;DHT22;26250;45.422;11.100;2023-05-27T20:16:48;24.20;78.40
40556;DHT22;26250;45.422;11.100;2023-05-27T20:19:15;24.20;78.80
40556;DHT22;26250;45.422;11.100;2023-05-27T20:21:42;24.10;78.90
40556;DHT22;26250;45.422;11.100;2023-05-27T20:24:09;24.10;78.40
